createdAt,value
2023-03-29T00:01:34.794Z,6.52
2023-03-29T00:04:04.320Z,6.60
2023-03-29T00:06:33.602Z,6.31
2023-03-29T00:09:01.957Z,6.79
2023-03-29T00:11:28.646Z,6.74
2023-03-29T00:13:55.386Z,6.85
2023-03-29T00:16:22.443Z,6.89
2023-03-29T00:18:49.005Z,6.77
2023-03-29T00:21:15.447Z,6.95
2023-03-29T00:23:41.897Z,6.88
2023-03-29T00:26:08.637Z,6.70
2023-03-29T00:28:35.455Z,6.86
2023-03-29T00:31:10.696Z,6.61
2023-03-29T00:33:37.526Z,6.86
2023-03-29T00:36:06.032Z,6.85
2023-03-29T00:38:33.238Z,6.61
2023-03-29T00:41:00.345Z,6.89
2023-03-29T00:43:27.111Z,6.69
2023-03-29T00:45:54.104Z,6.44
2023-03-29T00:48:28.971Z,7.05
2023-03-29T00:51:10.160Z,6.92
2023-03-29T00:53:42.680Z,7.04
2023-03-29T00:56:25.564Z,7.01
2023-03-29T00:58:57.250Z,6.78
2023-03-29T01:01:42.024Z,6.69
2023-03-29T01:04:18.211Z,6.97
2023-03-29T01:07:02.969Z,6.78
2023-03-29T01:09:32.669Z,6.63
2023-03-29T01:12:02.765Z,6.73
2023-03-29T01:14:34.544Z,6.65
2023-03-29T01:17:01.200Z,6.80
2023-03-29T01:19:33.042Z,6.85
2023-03-29T01:22:05.892Z,6.86
2023-03-29T01:24:58.361Z,6.87
2023-03-29T01:27:50.031Z,6.86
2023-03-29T01:30:25.504Z,6.84
2023-03-29T01:33:21.062Z,6.82
2023-03-29T01:36:08.138Z,6.56
2023-03-29T01:38:40.246Z,6.77
2023-03-29T01:41:07.851Z,6.31
2023-03-29T01:43:58.998Z,6.72
2023-03-29T01:46:48.213Z,6.69
2023-03-29T01:49:20.079Z,6.57
2023-03-29T01:51:58.489Z,6.53
2023-03-29T01:54:33.306Z,6.56
2023-03-29T01:57:03.780Z,6.21
2023-03-29T01:59:35.918Z,6.38
2023-03-29T02:02:11.426Z,6.32
2023-03-29T02:04:45.858Z,6.45
2023-03-29T02:07:13.072Z,6.17
2023-03-29T02:09:40.267Z,6.19
2023-03-29T02:12:09.176Z,6.21
2023-03-29T02:14:35.687Z,6.29
2023-03-29T02:17:19.976Z,5.90
2023-03-29T02:19:50.183Z,5.94
2023-03-29T02:22:19.750Z,6.24
2023-03-29T02:24:50.109Z,5.83
2023-03-29T02:27:16.650Z,5.66
2023-03-29T02:29:43.180Z,6.00
2023-03-29T02:32:19.519Z,5.71
2023-03-29T02:35:13.299Z,5.98
2023-03-29T02:37:45.310Z,5.64
2023-03-29T02:40:14.417Z,5.78
2023-03-29T02:42:43.772Z,5.95
2023-03-29T02:45:14.530Z,5.89
2023-03-29T02:47:50.004Z,5.65
2023-03-29T02:50:16.720Z,6.04
2023-03-29T02:52:53.006Z,5.99
2023-03-29T02:55:23.542Z,6.08
2023-03-29T02:57:50.362Z,5.87
2023-03-29T03:00:18.825Z,6.04
2023-03-29T03:02:46.763Z,5.57
2023-03-29T03:05:13.752Z,6.13
2023-03-29T03:07:40.652Z,5.69
2023-03-29T03:10:10.010Z,6.03
2023-03-29T03:12:37.616Z,6.04
2023-03-29T03:15:05.895Z,6.19
2023-03-29T03:17:33.469Z,6.16
2023-03-29T03:20:00.593Z,5.59
2023-03-29T03:22:27.133Z,5.43
2023-03-29T03:24:53.741Z,5.10
2023-03-29T03:27:20.521Z,5.25
2023-03-29T03:29:47.439Z,5.52
2023-03-29T03:32:13.978Z,5.89
2023-03-29T03:34:40.458Z,6.01
2023-03-29T03:37:07.057Z,6.05
2023-03-29T03:39:33.596Z,5.79
2023-03-29T03:42:00.269Z,5.95
2023-03-29T03:44:26.750Z,5.98
2023-03-29T03:46:53.258Z,5.70
2023-03-29T03:49:21.065Z,6.01
2023-03-29T03:51:47.700Z,5.85
2023-03-29T03:54:14.172Z,5.88
2023-03-29T03:56:40.666Z,6.04
2023-03-29T03:59:07.232Z,6.30
2023-03-29T04:01:35.301Z,6.34
2023-03-29T04:04:02.201Z,6.20
2023-03-29T04:06:30.541Z,5.64
2023-03-29T04:08:56.990Z,6.41
2023-03-29T04:11:23.787Z,6.15
2023-03-29T04:13:50.312Z,6.24
2023-03-29T04:16:16.798Z,6.26
2023-03-29T04:18:44.111Z,6.11
2023-03-29T04:21:10.831Z,6.20
2023-03-29T04:23:40.156Z,6.46
2023-03-29T04:26:07.739Z,6.51
2023-03-29T04:28:34.634Z,6.38
2023-03-29T04:31:03.941Z,6.51
2023-03-29T04:33:30.823Z,5.94
2023-03-29T04:35:57.388Z,5.97
2023-03-29T04:38:23.871Z,6.46
2023-03-29T04:40:50.947Z,6.58
2023-03-29T04:43:17.642Z,5.94
2023-03-29T04:45:50.120Z,6.27
2023-03-29T04:48:17.089Z,6.61
2023-03-29T04:50:46.750Z,6.61
2023-03-29T04:53:13.399Z,6.28
2023-03-29T04:55:39.958Z,6.25
2023-03-29T04:58:06.679Z,6.41
2023-03-29T05:00:33.257Z,6.63
2023-03-29T05:02:59.871Z,6.49
2023-03-29T05:05:26.992Z,6.46
2023-03-29T05:07:54.866Z,6.68
2023-03-29T05:10:21.562Z,6.60
2023-03-29T05:12:50.542Z,6.20
2023-03-29T05:15:17.343Z,6.68
2023-03-29T05:17:43.902Z,6.68
2023-03-29T05:20:11.554Z,6.26
2023-03-29T05:22:38.526Z,6.56
2023-03-29T05:25:05.754Z,6.72
2023-03-29T05:27:33.562Z,6.48
2023-03-29T05:30:01.705Z,5.32
2023-03-29T05:32:28.652Z,6.77
2023-03-29T05:34:55.206Z,6.11
2023-03-29T05:37:21.685Z,6.30
2023-03-29T05:39:49.954Z,6.39
2023-03-29T05:42:19.145Z,6.42
2023-03-29T05:44:45.583Z,6.51
2023-03-29T05:47:12.163Z,6.74
2023-03-29T05:49:39.195Z,6.91
2023-03-29T05:52:06.644Z,6.64
2023-03-29T05:54:33.065Z,6.83
2023-03-29T05:56:59.517Z,6.55
2023-03-29T05:59:28.423Z,6.86
2023-03-29T06:01:54.910Z,6.75
2023-03-29T06:04:21.559Z,7.12
2023-03-29T06:06:48.605Z,6.89
2023-03-29T06:09:15.569Z,7.13
2023-03-29T06:11:42.045Z,7.02
2023-03-29T06:14:08.781Z,7.22
2023-03-29T06:16:36.328Z,7.35
2023-03-29T06:19:02.869Z,7.22
2023-03-29T06:21:30.269Z,7.24
2023-03-29T06:23:56.713Z,7.26
2023-03-29T06:26:23.945Z,7.20
2023-03-29T06:28:52.252Z,7.52
2023-03-29T06:31:19.917Z,7.59
2023-03-29T06:33:46.893Z,7.64
2023-03-29T06:36:16.110Z,7.66
2023-03-29T06:38:44.283Z,7.70
2023-03-29T06:41:11.172Z,7.55
2023-03-29T06:43:38.182Z,7.45
2023-03-29T06:46:08.781Z,7.69
2023-03-29T06:48:35.306Z,7.37
2023-03-29T06:51:01.942Z,7.78
2023-03-29T06:53:28.597Z,7.78
2023-03-29T06:55:55.103Z,7.45
2023-03-29T06:58:21.859Z,7.82
2023-03-29T07:00:48.401Z,7.54
2023-03-29T07:03:20.418Z,7.80
2023-03-29T07:05:47.838Z,7.75
2023-03-29T07:08:16.666Z,7.48
2023-03-29T07:10:50.501Z,8.09
2023-03-29T07:13:17.267Z,7.83
2023-03-29T07:15:44.971Z,8.09
2023-03-29T07:18:12.779Z,8.12
2023-03-29T07:20:40.436Z,8.09
2023-03-29T07:23:08.150Z,7.93
2023-03-29T07:25:34.793Z,7.91
2023-03-29T07:28:02.743Z,8.55
2023-03-29T07:30:32.381Z,8.35
2023-03-29T07:33:00.539Z,8.55
2023-03-29T07:35:28.003Z,8.70
2023-03-29T07:37:57.787Z,8.40
2023-03-29T07:40:24.845Z,8.82
2023-03-29T07:42:53.953Z,8.82
2023-03-29T07:45:26.750Z,8.94
2023-03-29T07:47:57.533Z,8.84
2023-03-29T07:50:24.699Z,9.14
2023-03-29T07:52:51.354Z,9.11
2023-03-29T07:55:18.467Z,9.20
2023-03-29T07:57:45.254Z,9.26
2023-03-29T08:00:16.263Z,8.88
2023-03-29T08:02:44.447Z,9.24
2023-03-29T08:05:12.900Z,9.30
2023-03-29T08:07:43.350Z,9.19
2023-03-29T08:10:13.500Z,9.31
2023-03-29T08:12:40.239Z,9.29
2023-03-29T08:15:07.314Z,9.36
2023-03-29T08:17:34.971Z,9.11
2023-03-29T08:20:02.180Z,9.28
2023-03-29T08:22:28.636Z,9.34
2023-03-29T08:24:55.334Z,8.96
2023-03-29T08:27:22.125Z,9.13
2023-03-29T08:29:48.619Z,9.46
2023-03-29T08:32:15.282Z,9.40
2023-03-29T08:34:41.961Z,9.70
2023-03-29T08:37:09.780Z,9.52
2023-03-29T08:39:36.505Z,9.74
2023-03-29T08:42:28.782Z,9.76
2023-03-29T08:45:19.905Z,9.72
2023-03-29T08:48:08.382Z,9.96
2023-03-29T08:50:48.093Z,9.91
2023-03-29T08:53:27.657Z,9.71
2023-03-29T08:55:57.101Z,9.86
2023-03-29T08:58:29.205Z,9.93
2023-03-29T09:00:58.509Z,10.00
2023-03-29T09:03:31.858Z,10.02
2023-03-29T09:06:10.838Z,9.93
2023-03-29T09:08:44.129Z,10.19
2023-03-29T09:11:21.699Z,10.08
2023-03-29T09:14:09.126Z,10.27
2023-03-29T09:16:45.005Z,10.35
2023-03-29T09:19:20.894Z,10.35
2023-03-29T09:21:51.950Z,10.34
2023-03-29T09:24:44.290Z,10.35
2023-03-29T09:27:27.911Z,10.34
2023-03-29T09:30:13.589Z,10.45
2023-03-29T09:33:25.198Z,10.57
2023-03-29T09:36:12.181Z,10.64
2023-03-29T09:38:43.342Z,10.69
2023-03-29T09:41:18.991Z,10.76
2023-03-29T09:43:47.179Z,10.42
2023-03-29T09:46:28.214Z,11.04
2023-03-29T09:48:56.708Z,11.01
2023-03-29T09:51:28.084Z,11.15
2023-03-29T09:53:56.578Z,11.25
2023-03-29T09:56:23.662Z,11.20
2023-03-29T09:58:50.215Z,11.40
2023-03-29T10:01:20.252Z,11.09
2023-03-29T10:03:54.346Z,11.48
2023-03-29T10:06:24.053Z,11.20
2023-03-29T10:08:57.910Z,11.41
2023-03-29T10:11:33.292Z,11.22
2023-03-29T10:14:12.593Z,11.84
2023-03-29T10:16:41.846Z,11.90
2023-03-29T10:19:23.261Z,12.00
2023-03-29T10:21:55.646Z,11.76
2023-03-29T10:24:24.040Z,12.05
2023-03-29T10:26:57.506Z,12.01
2023-03-29T10:29:26.001Z,11.78
2023-03-29T10:31:53.127Z,11.76
2023-03-29T10:34:25.248Z,12.11
2023-03-29T10:36:58.878Z,12.17
2023-03-29T10:39:29.569Z,12.20
2023-03-29T10:41:56.403Z,12.03
2023-03-29T10:44:33.324Z,12.29
2023-03-29T10:47:17.592Z,12.30
2023-03-29T10:49:50.864Z,12.23
2023-03-29T10:52:20.292Z,12.20
2023-03-29T10:54:48.076Z,11.91
2023-03-29T10:57:22.798Z,11.69
2023-03-29T10:59:55.391Z,12.39
2023-03-29T11:02:33.765Z,12.38
2023-03-29T11:05:31.341Z,12.52
2023-03-29T11:08:10.040Z,12.50
2023-03-29T11:10:46.121Z,12.44
2023-03-29T11:13:59.839Z,12.50
2023-03-29T11:16:39.256Z,12.52
2023-03-29T11:19:05.776Z,12.43
2023-03-29T11:21:43.398Z,12.20
2023-03-29T11:24:28.067Z,12.41
2023-03-29T11:27:09.732Z,11.96
2023-03-29T11:29:58.639Z,12.25
2023-03-29T11:32:35.714Z,12.28
2023-03-29T11:35:32.210Z,12.22
2023-03-29T11:38:26.855Z,12.15
2023-03-29T11:41:10.946Z,12.17
2023-03-29T11:43:48.930Z,11.99
2023-03-29T11:46:27.309Z,11.75
2023-03-29T11:49:01.762Z,12.10
2023-03-29T11:51:59.554Z,12.11
2023-03-29T11:54:34.377Z,12.10
2023-03-29T11:57:11.648Z,12.03
2023-03-29T11:59:52.113Z,12.00
2023-03-29T12:02:35.982Z,11.84
2023-03-29T12:05:13.628Z,12.01
2023-03-29T12:07:48.651Z,12.01
2023-03-29T12:10:21.104Z,12.15
2023-03-29T12:13:17.049Z,12.15
2023-03-29T12:16:10.671Z,12.01
2023-03-29T12:18:41.976Z,12.31
2023-03-29T12:21:20.043Z,12.36
2023-03-29T12:23:48.047Z,12.42
2023-03-29T12:26:36.551Z,12.42
2023-03-29T12:29:15.239Z,12.48
2023-03-29T12:31:59.349Z,12.30
2023-03-29T12:34:30.991Z,12.49
2023-03-29T12:37:24.735Z,12.56
2023-03-29T12:39:51.993Z,12.41
2023-03-29T12:42:23.920Z,12.25
2023-03-29T12:45:00.583Z,12.43
2023-03-29T12:47:33.777Z,12.51
2023-03-29T12:50:03.426Z,12.48
2023-03-29T12:52:36.908Z,12.27
2023-03-29T12:55:30.796Z,12.71
2023-03-29T12:58:03.931Z,12.96
2023-03-29T13:00:44.529Z,12.96
2023-03-29T13:03:20.304Z,13.12
2023-03-29T13:05:47.170Z,12.77
2023-03-29T13:08:27.511Z,13.25
2023-03-29T13:10:54.989Z,13.31
2023-03-29T13:13:28.023Z,13.08
2023-03-29T13:15:54.777Z,13.30
2023-03-29T13:18:32.102Z,13.15
2023-03-29T13:21:07.860Z,13.36
2023-03-29T13:23:49.597Z,13.51
2023-03-29T13:27:02.573Z,13.54
2023-03-29T13:29:53.384Z,13.53
2023-03-29T13:32:27.193Z,13.49
2023-03-29T13:35:07.124Z,13.22
2023-03-29T13:37:57.981Z,13.56
2023-03-29T13:40:30.477Z,13.57
2023-03-29T13:43:19.738Z,13.53
2023-03-29T13:45:57.966Z,13.62
2023-03-29T13:48:37.851Z,13.74
2023-03-29T13:51:13.009Z,13.79
2023-03-29T13:54:10.649Z,13.86
2023-03-29T13:56:55.319Z,13.55
2023-03-29T13:59:35.572Z,13.72
2023-03-29T14:02:02.921Z,14.07
2023-03-29T14:04:46.757Z,14.02
2023-03-29T14:07:20.695Z,13.99
2023-03-29T14:09:53.141Z,13.95
2023-03-29T14:12:20.690Z,13.64
2023-03-29T14:14:58.156Z,13.68
2023-03-29T14:17:25.692Z,13.39
2023-03-29T14:19:58.722Z,13.93
2023-03-29T14:22:31.213Z,13.91
2023-03-29T14:25:02.621Z,14.04
2023-03-29T14:27:31.749Z,14.08
2023-03-29T14:29:58.273Z,14.07
2023-03-29T14:32:30.891Z,14.15
2023-03-29T14:34:57.919Z,13.90
2023-03-29T14:37:28.931Z,14.02
2023-03-29T14:39:56.667Z,13.45
2023-03-29T14:42:28.945Z,13.77
2023-03-29T14:45:04.143Z,13.77
2023-03-29T14:47:33.159Z,13.66
2023-03-29T14:50:01.848Z,13.59
2023-03-29T14:52:30.531Z,13.25
2023-03-29T14:55:01.949Z,13.23
2023-03-29T14:57:35.539Z,13.38
2023-03-29T15:00:16.815Z,13.19
2023-03-29T15:02:54.152Z,13.36
2023-03-29T15:05:41.744Z,13.43
2023-03-29T15:08:14.847Z,13.40
2023-03-29T15:10:44.730Z,13.34
2023-03-29T15:13:16.303Z,13.59
2023-03-29T15:15:42.981Z,13.46
2023-03-29T15:18:14.868Z,13.27
2023-03-29T15:20:42.442Z,13.52
2023-03-29T15:23:14.670Z,13.73
2023-03-29T15:25:51.816Z,13.57
2023-03-29T15:28:32.716Z,13.87
2023-03-29T15:31:20.149Z,13.95
2023-03-29T15:33:46.849Z,13.59
2023-03-29T15:36:14.596Z,13.51
2023-03-29T15:38:44.559Z,12.66
2023-03-29T15:41:16.124Z,13.77
2023-03-29T15:43:43.180Z,13.45
2023-03-29T15:46:16.644Z,13.47
2023-03-29T15:48:43.444Z,13.66
2023-03-29T15:51:13.368Z,13.54
2023-03-29T15:53:40.353Z,13.76
2023-03-29T15:56:11.548Z,13.83
2023-03-29T15:58:38.640Z,13.86
2023-03-29T16:01:34.683Z,13.83
2023-03-29T16:04:03.183Z,13.46
2023-03-29T16:06:29.775Z,13.71
2023-03-29T16:08:57.359Z,13.45
2023-03-29T16:11:24.121Z,13.61
2023-03-29T16:13:51.439Z,13.62
2023-03-29T16:16:18.083Z,13.81
2023-03-29T16:18:44.661Z,13.60
2023-03-29T16:21:16.033Z,13.79
2023-03-29T16:23:42.963Z,13.40
2023-03-29T16:26:12.512Z,13.77
2023-03-29T16:28:39.209Z,13.46
2023-03-29T16:31:06.093Z,13.54
2023-03-29T16:33:32.963Z,13.18
2023-03-29T16:35:59.487Z,13.61
2023-03-29T16:38:25.909Z,13.51
2023-03-29T16:40:52.587Z,13.50
2023-03-29T16:43:19.142Z,12.80
2023-03-29T16:45:45.779Z,13.65
2023-03-29T16:48:14.093Z,13.32
2023-03-29T16:50:40.531Z,13.51
2023-03-29T16:53:07.173Z,13.42
2023-03-29T16:55:34.026Z,13.17
2023-03-29T16:58:00.485Z,13.49
2023-03-29T17:00:27.010Z,13.56
2023-03-29T17:02:53.494Z,13.48
2023-03-29T17:05:19.932Z,13.63
2023-03-29T17:07:46.927Z,13.49
2023-03-29T17:10:13.857Z,13.62
2023-03-29T17:12:40.756Z,13.28
2023-03-29T17:15:08.843Z,13.37
2023-03-29T17:17:35.625Z,13.59
2023-03-29T17:20:02.102Z,13.33
2023-03-29T17:22:28.541Z,13.51
2023-03-29T17:24:57.714Z,13.38
2023-03-29T17:27:24.116Z,13.39
2023-03-29T17:29:50.864Z,13.11
2023-03-29T17:32:17.314Z,13.50
2023-03-29T17:34:43.738Z,13.13
2023-03-29T17:37:10.153Z,12.63
2023-03-29T17:39:37.880Z,13.45
2023-03-29T17:42:05.101Z,12.93
2023-03-29T17:44:33.229Z,13.18
2023-03-29T17:47:00.519Z,13.43
2023-03-29T17:49:27.021Z,12.83
2023-03-29T17:51:53.520Z,13.29
2023-03-29T17:54:19.958Z,13.43
2023-03-29T17:56:46.413Z,13.06
2023-03-29T17:59:16.260Z,13.26
2023-03-29T18:01:43.170Z,13.07
2023-03-29T18:04:09.912Z,13.41
2023-03-29T18:06:36.434Z,13.07
2023-03-29T18:09:03.190Z,13.39
2023-03-29T18:11:29.747Z,13.09
2023-03-29T18:13:59.919Z,12.91
2023-03-29T18:16:26.671Z,13.37
2023-03-29T18:18:53.269Z,13.10
2023-03-29T18:21:19.970Z,13.29
2023-03-29T18:23:48.186Z,13.31
2023-03-29T18:26:18.138Z,13.33
2023-03-29T18:28:48.478Z,13.33
2023-03-29T18:31:16.041Z,13.30
2023-03-29T18:33:43.027Z,12.74
2023-03-29T18:36:13.226Z,12.96
2023-03-29T18:38:40.688Z,12.97
2023-03-29T18:41:08.580Z,13.20
2023-03-29T18:43:36.934Z,13.17
2023-03-29T18:46:03.554Z,13.13
2023-03-29T18:48:31.039Z,13.01
2023-03-29T18:50:58.293Z,13.03
2023-03-29T18:53:25.018Z,13.07
2023-03-29T18:55:51.510Z,13.04
2023-03-29T18:58:20.251Z,13.00
2023-03-29T19:00:46.838Z,12.71
2023-03-29T19:03:13.501Z,12.90
2023-03-29T19:05:40.161Z,12.66
2023-03-29T19:08:08.461Z,12.61
2023-03-29T19:10:36.656Z,12.56
2023-03-29T19:13:04.136Z,12.36
2023-03-29T19:15:31.683Z,12.78
2023-03-29T19:17:58.246Z,12.55
2023-03-29T19:20:25.564Z,12.42
2023-03-29T19:22:53.717Z,12.74
2023-03-29T19:25:20.646Z,12.61
2023-03-29T19:27:47.739Z,12.60
2023-03-29T19:30:15.143Z,12.69
2023-03-29T19:32:41.942Z,12.57
2023-03-29T19:35:09.620Z,12.07
2023-03-29T19:37:36.486Z,12.45
2023-03-29T19:40:06.371Z,12.59
2023-03-29T19:42:38.606Z,12.60
2023-03-29T19:45:07.604Z,12.36
2023-03-29T19:47:34.739Z,12.29
2023-03-29T19:50:04.014Z,12.57
2023-03-29T19:52:30.694Z,12.29
2023-03-29T19:54:58.572Z,12.54
2023-03-29T19:57:25.487Z,12.49
2023-03-29T19:59:53.876Z,12.42
2023-03-29T20:02:20.502Z,12.15
2023-03-29T20:04:50.225Z,12.41
2023-03-29T20:07:16.805Z,12.12
2023-03-29T20:09:45.221Z,12.39
2023-03-29T20:12:11.921Z,12.40
2023-03-29T20:14:40.130Z,12.41
2023-03-29T20:17:07.405Z,12.06
2023-03-29T20:19:36.369Z,12.02
2023-03-29T20:22:05.991Z,12.33
2023-03-29T20:24:34.590Z,11.89
2023-03-29T20:27:01.720Z,12.16
2023-03-29T20:29:28.246Z,12.22
2023-03-29T20:31:54.854Z,12.17
2023-03-29T20:34:22.141Z,12.21
2023-03-29T20:36:48.894Z,12.09
2023-03-29T20:39:18.653Z,12.04
2023-03-29T20:41:47.932Z,12.27
2023-03-29T20:44:18.989Z,12.36
2023-03-29T20:46:54.285Z,12.27
2023-03-29T20:49:26.233Z,12.14
2023-03-29T20:51:59.000Z,12.37
2023-03-29T20:54:26.446Z,12.05
2023-03-29T20:56:55.103Z,12.12
2023-03-29T20:59:22.925Z,12.35
2023-03-29T21:01:50.155Z,12.28
2023-03-29T21:04:17.569Z,12.19
2023-03-29T21:06:45.643Z,12.12
2023-03-29T21:09:13.614Z,12.21
2023-03-29T21:11:40.178Z,12.08
2023-03-29T21:14:06.753Z,12.21
2023-03-29T21:16:33.463Z,12.40
2023-03-29T21:18:59.978Z,12.38
2023-03-29T21:21:26.518Z,12.40
2023-03-29T21:23:53.007Z,12.39
2023-03-29T21:26:19.590Z,12.14
2023-03-29T21:28:48.418Z,12.33
2023-03-29T21:31:15.240Z,12.13
2023-03-29T21:33:41.718Z,12.31
2023-03-29T21:36:08.312Z,12.11
2023-03-29T21:38:34.889Z,12.31
2023-03-29T21:41:03.095Z,12.30
2023-03-29T21:43:29.776Z,12.12
2023-03-29T21:45:57.830Z,11.78
2023-03-29T21:48:24.312Z,11.98
2023-03-29T21:50:51.023Z,11.95
2023-03-29T21:53:18.280Z,11.38
2023-03-29T21:55:44.802Z,12.10
2023-03-29T21:58:11.324Z,12.00
2023-03-29T22:00:38.034Z,11.45
2023-03-29T22:03:04.616Z,12.06
2023-03-29T22:05:31.172Z,11.56
2023-03-29T22:07:58.629Z,11.47
2023-03-29T22:10:25.389Z,12.04
2023-03-29T22:12:52.544Z,11.95
2023-03-29T22:15:21.758Z,11.46
2023-03-29T22:17:48.900Z,11.56
2023-03-29T22:20:15.477Z,11.85
2023-03-29T22:22:47.100Z,12.02
2023-03-29T22:25:13.589Z,12.02
2023-03-29T22:27:40.264Z,12.01
2023-03-29T22:30:08.469Z,11.72
2023-03-29T22:32:34.906Z,11.88
2023-03-29T22:35:01.643Z,11.92
2023-03-29T22:37:28.140Z,12.01
2023-03-29T22:39:54.568Z,12.04
2023-03-29T22:42:20.980Z,11.82
2023-03-29T22:44:47.537Z,11.92
2023-03-29T22:47:14.030Z,12.04
2023-03-29T22:49:40.919Z,11.91
2023-03-29T22:52:07.660Z,11.91
2023-03-29T22:54:34.124Z,12.04
2023-03-29T22:57:00.795Z,11.84
2023-03-29T22:59:27.495Z,11.37
2023-03-29T23:01:54.300Z,11.85
2023-03-29T23:04:20.872Z,11.80
2023-03-29T23:06:47.336Z,11.87
2023-03-29T23:09:15.964Z,12.02
2023-03-29T23:11:43.051Z,12.11
2023-03-29T23:14:09.629Z,12.13
2023-03-29T23:16:36.991Z,11.67
2023-03-29T23:19:03.437Z,11.88
2023-03-29T23:21:29.928Z,12.15
2023-03-29T23:23:56.378Z,11.55
2023-03-29T23:26:23.142Z,12.03
2023-03-29T23:28:51.489Z,12.10
2023-03-29T23:31:21.147Z,12.12
2023-03-29T23:33:47.671Z,11.39
2023-03-29T23:36:17.046Z,12.23
2023-03-29T23:38:45.417Z,11.93
2023-03-29T23:41:13.326Z,12.09
2023-03-29T23:43:42.505Z,11.80
2023-03-29T23:46:12.040Z,12.25
2023-03-29T23:48:39.177Z,12.10
2023-03-29T23:51:08.032Z,12.06
2023-03-29T23:53:35.005Z,11.95
2023-03-29T23:56:04.068Z,12.04
2023-03-29T23:58:36.833Z,12.19
